Time;durP1;ratioP1;P1;durP2;ratioP2;P2;SDS_P1;SDS_P2;PMS_P1;PMS_P2;Temp;Humidity;BMP_temperature;BMP_pressure;BME280_temperature;BME280_humidity;BME280_pressure;Samples;Min_cycle;Max_cycle;Signal;HPM_P1;HPM_P2
2022/03/03 00:02:09;;;;;;;38.43;16.20;;;;;;;39.00;43.96;100930.69;5014811;28;20423;-68
2022/03/03 00:04:35;;;;;;;37.87;16.30;;;;;;;38.82;44.04;100929.78;5031021;28;20455;-69
2022/03/03 00:07:01;;;;;;;40.53;17.33;;;;;;;38.90;43.86;100926.31;5032006;28;20408;-68
2022/03/03 00:09:27;;;;;;;28.30;18.30;;;;;;;38.84;44.40;100920.22;5032349;28;20399;-69
2022/03/03 00:11:53;;;;;;;47.73;20.70;;;;;;;38.90;44.12;100918.97;5014613;28;20480;-68
2022/03/03 00:14:19;;;;;;;41.57;17.47;;;;;;;38.98;43.85;100912.00;4994852;28;20481;-71
2022/03/03 00:16:45;;;;;;;41.30;18.00;;;;;;;38.97;43.93;100907.69;5011093;28;20459;-68
2022/03/03 00:19:12;;;;;;;35.27;15.80;;;;;;;38.84;44.73;100906.66;5010778;28;20536;-69
2022/03/03 00:21:38;;;;;;;31.00;13.33;;;;;;;38.89;43.74;100901.09;5012535;28;20788;-68
2022/03/03 00:24:04;;;;;;;34.73;18.07;;;;;;;38.80;43.49;100888.63;5011033;28;20514;-69
2022/03/03 00:26:30;;;;;;;25.97;14.67;;;;;;;38.81;43.33;100890.22;5011008;28;20413;-70
2022/03/03 00:28:57;;;;;;;50.90;18.30;;;;;;;38.38;44.73;100869.06;5010875;28;20512;-68
2022/03/03 00:31:23;;;;;;;34.87;14.50;;;;;;;38.84;43.51;100865.19;5010874;28;20448;-69
2022/03/03 00:33:49;;;;;;;46.07;16.60;;;;;;;38.70;44.08;100857.91;5012323;28;20428;-69
2022/03/03 00:36:16;;;;;;;24.07;14.40;;;;;;;38.75;44.13;100853.50;5010650;28;20445;-70
2022/03/03 00:38:42;;;;;;;36.80;15.63;;;;;;;38.66;44.29;100851.50;5010620;28;20873;-70
2022/03/03 00:41:08;;;;;;;42.03;18.93;;;;;;;38.70;44.18;100841.66;5011056;28;20934;-68
2022/03/03 00:43:34;;;;;;;37.43;17.27;;;;;;;38.80;44.11;100832.50;5010754;28;20468;-68
2022/03/03 00:46:00;;;;;;;32.30;16.20;;;;;;;38.78;44.13;100820.34;5011786;28;20440;-70
2022/03/03 00:48:26;;;;;;;35.30;16.13;;;;;;;38.67;44.51;100817.91;5010556;28;20424;-69
2022/03/03 00:50:52;;;;;;;49.00;20.70;;;;;;;38.47;44.96;100812.19;5010911;28;20909;-70
2022/03/03 00:53:19;;;;;;;28.67;14.80;;;;;;;38.66;44.60;100816.28;5010706;28;20463;-70
2022/03/03 00:55:45;;;;;;;33.10;18.07;;;;;;;38.73;43.95;100815.84;5010808;28;20944;-69
2022/03/03 00:58:11;;;;;;;27.63;16.63;;;;;;;38.85;43.98;100817.97;5010297;28;20514;-71
2022/03/03 01:00:37;;;;;;;30.33;15.70;;;;;;;38.91;43.88;100830.28;5010646;28;20428;-68
2022/03/03 01:03:03;;;;;;;21.83;15.77;;;;;;;38.70;44.13;100814.53;5010730;28;20498;-70
2022/03/03 01:05:29;;;;;;;26.63;14.60;;;;;;;38.72;44.70;100832.44;5010293;28;20860;-68
2022/03/03 01:07:55;;;;;;;27.83;18.07;;;;;;;38.88;44.15;100833.63;5010272;28;20804;-69
2022/03/03 01:10:21;;;;;;;29.10;14.30;;;;;;;38.80;44.26;100828.97;5010444;28;20459;-68
2022/03/03 01:12:47;;;;;;;32.17;15.53;;;;;;;38.86;44.02;100822.31;5010464;28;20456;-68
2022/03/03 01:15:14;;;;;;;30.23;15.87;;;;;;;38.59;44.16;100823.25;5010060;28;20473;-68
2022/03/03 01:17:40;;;;;;;34.40;17.97;;;;;;;38.57;44.58;100820.88;5010230;28;20447;-68
2022/03/03 01:20:08;;;;;;;29.37;14.77;;;;;;;38.60;44.32;100820.22;5011733;28;20420;-70
2022/03/03 01:22:34;;;;;;;24.20;16.97;;;;;;;38.61;44.82;100829.16;5010828;28;20424;-69
2022/03/03 01:25:01;;;;;;;44.83;14.90;;;;;;;38.22;45.50;100813.63;5010286;28;20492;-70
2022/03/03 01:27:27;;;;;;;39.83;18.90;;;;;;;38.19;45.65;100823.19;5009892;28;20948;-68
2022/03/03 01:29:53;;;;;;;41.17;16.80;;;;;;;38.12;45.87;100826.31;5012052;28;20482;-68
2022/03/03 01:32:19;;;;;;;28.90;13.97;;;;;;;38.38;45.32;100823.00;5015688;28;20881;-69
2022/03/03 01:34:45;;;;;;;33.47;15.57;;;;;;;38.64;44.78;100832.06;5014327;28;20416;-68
2022/03/03 01:37:11;;;;;;;33.70;15.80;;;;;;;38.73;44.26;100823.19;5013493;28;20456;-68
2022/03/03 01:39:37;;;;;;;26.90;15.30;;;;;;;38.69;44.40;100825.72;5014152;28;20834;-69
2022/03/03 01:42:04;;;;;;;36.20;16.97;;;;;;;38.66;44.56;100823.59;4997796;28;20459;-68
2022/03/03 01:44:30;;;;;;;33.67;14.60;;;;;;;38.70;44.52;100816.47;5014005;28;20494;-69
2022/03/03 01:46:58;;;;;;;38.63;19.37;;;;;;;38.32;45.36;100805.28;5014782;28;20443;-68
2022/03/03 01:49:25;;;;;;;27.63;15.90;;;;;;;38.54;44.99;100805.22;4997614;28;20507;-70
2022/03/03 01:51:52;;;;;;;34.87;15.67;;;;;;;38.28;45.20;100799.66;5014027;28;20427;-69
2022/03/03 01:54:19;;;;;;;38.97;15.73;;;;;;;38.36;45.07;100806.22;5013930;28;20507;-68
2022/03/03 01:56:47;;;;;;;38.23;14.80;;;;;;;38.48;44.85;100798.31;5013624;28;20448;-68
2022/03/03 01:59:14;;;;;;;31.40;15.63;;;;;;;38.53;45.05;100809.03;5013474;28;20459;-68
2022/03/03 02:01:41;;;;;;;35.33;17.33;;;;;;;38.78;44.03;100823.06;4997510;28;20859;-68
2022/03/03 02:04:09;;;;;;;38.87;15.47;;;;;;;38.86;43.81;100835.88;5013674;28;20459;-68
2022/03/03 02:06:37;;;;;;;36.03;16.67;;;;;;;39.02;43.33;100850.59;5013714;28;20454;-69
2022/03/03 02:09:04;;;;;;;33.70;15.27;;;;;;;38.90;43.60;100853.09;5013446;28;20432;-68
2022/03/03 02:11:32;;;;;;;34.87;13.90;;;;;;;38.88;43.66;100868.88;5013428;28;20448;-69
2022/03/03 02:14:07;;;;;;;29.13;16.20;;;;;;;39.02;43.22;100869.56;5016726;28;21097;-69
2022/03/03 02:16:33;;;;;;;44.03;18.43;;;;;;;38.85;43.92;100866.78;5034616;28;20468;-68
2022/03/03 02:18:59;;;;;;;24.30;15.87;;;;;;;38.90;43.72;100867.44;5016121;28;20431;-68
2022/03/03 02:21:26;;;;;;;34.67;14.50;;;;;;;38.89;43.44;100873.19;5034423;28;20400;-68
2022/03/03 02:23:52;;;;;;;34.20;20.87;;;;;;;39.04;43.69;100877.38;5034301;28;20439;-68
2022/03/03 02:26:20;;;;;;;30.73;15.50;;;;;;;38.92;43.79;100894.28;5032970;28;20452;-68
2022/03/03 02:28:51;;;;;;;25.97;14.20;;;;;;;38.90;43.79;100904.63;5016252;28;20427;-68
2022/03/03 02:31:19;;;;;;;39.93;15.17;;;;;;;38.83;43.66;100906.97;5016501;28;20431;-68
2022/03/03 02:33:45;;;;;;;34.00;16.90;;;;;;;38.29;44.64;100922.38;5016408;28;20420;-68
2022/03/03 02:36:41;;;;;;;30.57;15.73;;;;;;;38.17;45.52;100910.16;5016309;28;20507;-68
2022/03/03 02:39:07;;;;;;;54.60;22.27;;;;;;;37.93;46.02;100915.03;5003316;28;20477;-68
2022/03/03 02:41:33;;;;;;;36.60;18.07;;;;;;;36.98;48.30;100912.03;5032616;28;20514;-68
2022/03/03 02:44:02;;;;;;;46.50;19.53;;;;;;;36.54;49.41;100907.88;5016275;28;20455;-68
2022/03/03 02:46:28;;;;;;;54.53;24.67;;;;;;;36.80;49.13;100894.75;5033975;28;20495;-68
2022/03/03 02:48:55;;;;;;;39.40;22.70;;;;;;;36.98;48.06;100893.09;5015683;28;20465;-70
2022/03/03 02:51:22;;;;;;;45.63;22.40;;;;;;;36.87;48.09;100910.59;5015790;28;20443;-68
2022/03/03 02:53:48;;;;;;;48.70;25.43;;;;;;;36.85;47.93;100913.56;5000006;28;20419;-68
2022/03/03 02:56:14;;;;;;;31.73;22.00;;;;;;;37.12;47.70;100907.44;5015899;28;20460;-68
2022/03/03 02:58:40;;;;;;;36.10;21.27;;;;;;;37.17;46.96;100903.84;5015544;28;20431;-68
2022/03/03 03:01:08;;;;;;;35.23;22.33;;;;;;;37.17;46.88;100900.31;5033676;28;20406;-68
2022/03/03 03:03:35;;;;;;;47.23;23.30;;;;;;;36.88;47.84;100901.38;5015743;28;20554;-69
2022/03/03 03:06:01;;;;;;;50.03;31.60;;;;;;;37.11;47.23;100900.41;5015895;28;20420;-68
2022/03/03 03:08:27;;;;;;;48.73;27.30;;;;;;;36.91;47.59;100905.41;5015318;28;20428;-68
2022/03/03 03:10:54;;;;;;;40.50;26.80;;;;;;;37.16;47.42;100912.25;5015619;28;20459;-68
2022/03/03 03:13:20;;;;;;;35.60;21.87;;;;;;;36.91;47.98;100908.13;5033553;28;20418;-68
2022/03/03 03:15:46;;;;;;;33.53;16.60;;;;;;;36.04;49.90;100906.75;5015376;28;20475;-68
2022/03/03 03:18:18;;;;;;;36.40;18.10;;;;;;;36.13;49.72;100898.78;5033221;28;20397;-68
2022/03/03 03:20:47;;;;;;;35.83;20.40;;;;;;;36.46;48.65;100894.22;5015350;28;20905;-68
2022/03/03 03:23:16;;;;;;;44.90;21.00;;;;;;;36.57;48.21;100896.47;5015171;28;20810;-68
2022/03/03 03:25:45;;;;;;;38.30;19.93;;;;;;;35.89;50.06;100896.13;5015467;28;20431;-70
2022/03/03 03:28:16;;;;;;;39.20;19.93;;;;;;;35.55;49.88;100890.91;4999293;28;20446;-68
2022/03/03 03:30:42;;;;;;;57.63;25.10;;;;;;;34.73;51.02;100892.50;5015416;28;20400;-68
2022/03/03 03:33:09;;;;;;;43.43;20.90;;;;;;;35.16;49.15;100897.22;5015197;28;20447;-68
2022/03/03 03:35:36;;;;;;;48.30;22.00;;;;;;;35.02;46.11;100883.63;5015167;28;20411;-67
2022/03/03 03:38:03;;;;;;;59.50;24.30;;;;;;;34.36;47.14;100893.03;5015170;28;20916;-68
2022/03/03 03:40:30;;;;;;;48.97;23.20;;;;;;;33.54;48.33;100895.34;5014861;28;20932;-68
2022/03/03 03:42:56;;;;;;;50.60;23.07;;;;;;;34.10;47.16;100884.31;5015190;28;20412;-69
2022/03/03 03:45:22;;;;;;;48.10;20.13;;;;;;;33.86;47.37;100886.84;5014918;28;20454;-68
2022/03/03 03:47:48;;;;;;;42.93;17.60;;;;;;;33.68;47.94;100880.22;5032581;28;20471;-70
2022/03/03 03:50:14;;;;;;;37.50;15.63;;;;;;;33.69;47.70;100867.56;5014575;28;20434;-67
2022/03/03 03:52:42;;;;;;;28.97;17.43;;;;;;;33.74;47.22;100869.44;5030911;28;20419;-68
2022/03/03 03:55:10;;;;;;;23.30;13.30;;;;;;;33.69;45.94;100884.50;5014690;28;20411;-68
2022/03/03 03:57:36;;;;;;;25.50;15.73;;;;;;;33.74;45.14;100888.25;5030983;28;20502;-69
2022/03/03 04:00:09;;;;;;;26.37;16.10;;;;;;;33.78;44.01;100889.31;5032458;28;20396;-67
2022/03/03 04:02:35;;;;;;;29.13;16.90;;;;;;;34.17;42.83;100865.97;5014631;28;20423;-68
2022/03/03 04:05:02;;;;;;;20.57;12.07;;;;;;;34.25;42.72;100858.38;5014553;28;21050;-68
2022/03/03 04:07:28;;;;;;;28.53;13.27;;;;;;;33.88;43.76;100844.34;5014445;28;20419;-69
2022/03/03 04:09:54;;;;;;;26.17;13.20;;;;;;;34.64;42.56;100834.94;5030734;28;20419;-68
2022/03/03 04:12:20;;;;;;;16.50;13.17;;;;;;;35.24;41.21;100824.63;5014501;28;20436;-68
2022/03/03 04:14:46;;;;;;;33.17;14.47;;;;;;;35.30;40.80;100819.97;5030815;28;21033;-68
2022/03/03 04:17:12;;;;;;;28.37;16.10;;;;;;;34.77;41.93;100811.91;5032040;28;20910;-70
2022/03/03 04:19:38;;;;;;;25.40;18.70;;;;;;;35.38;40.65;100802.34;5030988;28;20423;-68
2022/03/03 04:22:04;;;;;;;29.80;18.43;;;;;;;35.96;39.44;100804.78;5030894;28;20447;-68
2022/03/03 04:24:30;;;;;;;28.10;19.00;;;;;;;35.91;39.45;100794.03;4998114;28;20993;-68
2022/03/03 04:26:56;;;;;;;33.10;14.90;;;;;;;36.20;39.10;100785.78;5031936;28;20903;-68
2022/03/03 04:29:23;;;;;;;33.03;18.97;;;;;;;36.49;38.81;100780.19;5030694;28;20469;-68
2022/03/03 04:31:51;;;;;;;30.20;17.83;;;;;;;36.74;38.53;100784.31;5014258;28;20514;-69
2022/03/03 04:34:19;;;;;;;39.67;20.50;;;;;;;36.70;38.88;100780.59;5014091;28;20585;-68
2022/03/03 04:36:45;;;;;;;47.10;22.03;;;;;;;36.55;39.41;100785.19;5014022;28;20420;-68
2022/03/03 04:39:12;;;;;;;32.20;16.50;;;;;;;36.51;39.01;100770.66;4997986;28;20522;-68
2022/03/03 04:41:39;;;;;;;38.93;20.53;;;;;;;36.27;39.40;100775.41;5013843;28;20451;-68
2022/03/03 04:44:05;;;;;;;36.57;16.50;;;;;;;36.23;39.77;100766.28;5030582;28;20459;-70
2022/03/03 04:46:32;;;;;;;42.17;19.47;;;;;;;36.39;39.24;100772.22;5030528;28;20430;-69
2022/03/03 04:48:59;;;;;;;28.40;18.03;;;;;;;36.13;39.84;100771.88;5013690;28;20835;-69
2022/03/03 04:51:36;;;;;;;26.90;15.90;;;;;;;36.22;39.49;100778.22;5013704;28;20419;-67
2022/03/03 04:54:04;;;;;;;30.97;17.50;;;;;;;36.30;39.15;100772.13;5014108;28;20923;-67
2022/03/03 04:56:30;;;;;;;27.60;16.83;;;;;;;36.76;38.67;100765.88;5013707;28;20440;-69
2022/03/03 04:58:56;;;;;;;30.40;13.70;;;;;;;36.40;40.14;100766.56;5013843;28;20424;-69
2022/03/03 05:01:22;;;;;;;27.80;13.73;;;;;;;36.65;39.93;100750.97;4997465;28;20431;-67
2022/03/03 05:03:48;;;;;;;24.13;13.03;;;;;;;36.65;40.31;100748.25;5013769;28;20463;-68
2022/03/03 05:06:14;;;;;;;35.20;16.97;;;;;;;36.77;40.82;100751.25;5033385;28;20440;-68
2022/03/03 05:08:41;;;;;;;52.23;17.77;;;;;;;35.98;42.36;100749.44;5017917;28;20808;-68
2022/03/03 05:11:07;;;;;;;34.97;18.40;;;;;;;35.98;42.57;100738.63;5001448;28;20971;-68
2022/03/03 05:13:33;;;;;;;38.90;18.53;;;;;;;36.23;42.47;100737.38;5034237;28;20544;-70
2022/03/03 05:15:59;;;;;;;38.17;17.30;;;;;;;36.33;42.23;100744.50;5034227;28;20482;-70
2022/03/03 05:18:25;;;;;;;27.60;13.20;;;;;;;36.75;41.96;100750.78;5017650;28;20955;-68
2022/03/03 05:20:52;;;;;;;32.17;20.00;;;;;;;36.97;42.06;100747.41;5033983;28;20487;-70
2022/03/03 05:23:18;;;;;;;215.53;124.03;;;;;;;37.02;42.01;100761.63;5034003;28;20484;-70
2022/03/03 05:25:44;;;;;;;299.73;192.03;;;;;;;37.11;42.09;100773.31;5033967;28;20463;-70
2022/03/03 05:28:10;;;;;;;329.70;211.40;;;;;;;37.26;41.90;100785.72;5017404;28;20416;-68
2022/03/03 05:30:37;;;;;;;301.87;202.13;;;;;;;36.96;42.52;100799.88;5017402;28;20833;-68
2022/03/03 05:33:04;;;;;;;322.33;206.23;;;;;;;36.96;42.55;100797.97;5017426;28;20447;-68
2022/03/03 05:35:30;;;;;;;251.50;160.17;;;;;;;37.03;42.41;100789.47;5035141;28;20388;-68
2022/03/03 05:37:56;;;;;;;197.30;135.83;;;;;;;37.24;42.71;100787.13;5017605;28;20442;-68
2022/03/03 05:40:22;;;;;;;169.90;102.67;;;;;;;37.16;42.84;100785.13;5000964;28;20454;-68
2022/03/03 05:42:48;;;;;;;144.33;86.70;;;;;;;37.26;42.26;100787.59;5017198;28;20484;-68
2022/03/03 05:45:15;;;;;;;94.00;65.90;;;;;;;37.33;42.70;100780.69;5000821;28;20471;-68
2022/03/03 05:47:41;;;;;;;94.80;57.20;;;;;;;36.96;42.77;100784.44;5016958;28;20426;-68
2022/03/03 05:50:09;;;;;;;66.73;38.23;;;;;;;36.53;43.89;100779.28;5035072;28;20403;-68
2022/03/03 05:52:35;;;;;;;50.33;26.47;;;;;;;36.77;43.49;100771.00;5000808;28;21018;-68
2022/03/03 05:55:02;;;;;;;34.60;19.70;;;;;;;36.92;43.96;100771.81;5035018;28;20783;-68
2022/03/03 05:57:44;;;;;;;40.30;16.87;;;;;;;36.89;43.67;100775.13;5016942;28;20915;-68
2022/03/03 06:00:13;;;;;;;32.23;17.40;;;;;;;36.84;43.93;100763.28;5017140;28;20420;-68
2022/03/03 06:03:01;;;;;;;32.03;17.80;;;;;;;36.80;44.90;100791.22;4996327;28;20431;-68
2022/03/03 06:05:28;;;;;;;32.03;15.00;;;;;;;36.95;44.74;100799.06;4997209;28;20582;-69
2022/03/03 06:08:05;;;;;;;35.57;15.60;;;;;;;36.96;44.65;100799.88;4997094;28;20428;-68
2022/03/03 06:10:33;;;;;;;38.80;16.97;;;;;;;36.65;46.18;100802.31;4997083;28;20501;-68
2022/03/03 06:13:24;;;;;;;36.30;16.00;;;;;;;37.02;44.42;100807.59;4996832;28;20431;-68
2022/03/03 06:15:51;;;;;;;36.97;18.20;;;;;;;36.90;43.87;100831.63;4974172;28;20474;-68
2022/03/03 06:18:20;;;;;;;29.00;17.83;;;;;;;37.02;44.53;100840.03;4997610;28;20453;-67
2022/03/03 06:20:47;;;;;;;27.20;16.47;;;;;;;37.13;43.83;100843.31;4973958;28;20458;-67
2022/03/03 06:23:13;;;;;;;31.20;17.40;;;;;;;37.11;43.40;100850.94;4958085;28;20426;-68
2022/03/03 06:25:40;;;;;;;25.80;14.53;;;;;;;37.01;44.19;100860.03;4974281;28;20464;-68
2022/03/03 06:28:08;;;;;;;32.97;17.20;;;;;;;37.15;43.55;100868.19;4989826;28;20965;-68
2022/03/03 06:30:35;;;;;;;32.40;15.97;;;;;;;37.27;43.23;100886.63;4990390;28;21025;-68
2022/03/03 06:33:01;;;;;;;46.70;22.27;;;;;;;36.98;43.83;100890.41;4973675;28;20485;-69
2022/03/03 06:35:27;;;;;;;35.30;15.37;;;;;;;36.06;46.55;100894.53;4973913;28;20418;-69
2022/03/03 06:37:53;;;;;;;30.30;16.23;;;;;;;36.56;45.32;100902.19;5002204;28;20434;-68
2022/03/03 06:40:19;;;;;;;28.07;17.27;;;;;;;36.41;45.36;100908.66;4992700;28;20453;-67
2022/03/03 06:42:45;;;;;;;34.03;16.17;;;;;;;36.42;45.64;100909.44;4992864;28;20444;-67
2022/03/03 06:45:11;;;;;;;40.93;18.50;;;;;;;36.65;45.63;100910.41;4990701;28;20469;-67
2022/03/03 06:47:37;;;;;;;39.03;19.33;;;;;;;36.71;45.69;100911.91;5007926;28;20487;-67
2022/03/03 06:50:04;;;;;;;29.37;15.33;;;;;;;36.81;45.37;100919.88;4993095;28;20508;-69
2022/03/03 06:52:33;;;;;;;25.40;14.43;;;;;;;37.11;44.48;100924.75;4990150;28;20429;-67
2022/03/03 06:55:01;;;;;;;33.20;17.60;;;;;;;37.10;44.73;100925.06;5008129;28;20438;-67
2022/03/03 06:57:29;;;;;;;43.67;20.00;;;;;;;36.89;44.86;100931.94;4991935;28;20861;-67
2022/03/03 07:00:00;;;;;;;38.97;18.20;;;;;;;36.79;45.12;100927.47;4987614;28;20512;-71
2022/03/03 07:02:27;;;;;;;33.80;19.50;;;;;;;36.93;44.94;100933.75;5007412;28;20417;-68
2022/03/03 07:04:54;;;;;;;40.37;20.67;;;;;;;36.79;44.86;100938.28;4993237;28;20496;-67
2022/03/03 07:07:21;;;;;;;38.73;19.97;;;;;;;37.04;44.44;100946.00;4968946;28;20414;-70
2022/03/03 07:09:49;;;;;;;60.20;27.80;;;;;;;37.30;43.22;100945.50;4991914;28;21004;-67
2022/03/03 07:12:17;;;;;;;46.53;28.87;;;;;;;37.20;43.48;100953.81;4991278;28;20436;-68
2022/03/03 07:14:44;;;;;;;34.40;21.17;;;;;;;37.41;42.81;100955.06;5001108;28;20503;-68
2022/03/03 07:17:26;;;;;;;32.57;19.70;;;;;;;37.32;43.12;100954.94;5013043;28;20439;-72
2022/03/03 07:20:27;;;;;;;60.53;37.47;;;;;;;37.38;42.11;100955.66;5045113;28;20433;-68
2022/03/03 07:23:02;;;;;;;50.93;39.37;;;;;;;37.22;41.92;100965.16;5012067;28;20464;-69
2022/03/03 07:25:43;;;;;;;54.70;40.00;;;;;;;37.42;41.69;100964.00;5013416;28;20456;-69
2022/03/03 07:28:11;;;;;;;49.90;38.10;;;;;;;37.38;41.91;100969.19;5010655;28;20488;-69
2022/03/03 07:30:43;;;;;;;74.60;34.80;;;;;;;37.68;41.32;100969.69;5009919;28;20510;-70
2022/03/03 07:33:13;;;;;;;58.37;36.00;;;;;;;37.44;41.97;100981.53;5011623;28;20445;-69
2022/03/03 07:35:45;;;;;;;46.27;35.60;;;;;;;37.50;42.60;100983.03;5012061;28;20417;-70
2022/03/03 07:38:14;;;;;;;58.53;37.43;;;;;;;37.51;42.49;100983.84;5011690;28;20459;-68
2022/03/03 07:40:42;;;;;;;66.80;38.20;;;;;;;37.61;42.15;100984.44;5044963;28;20419;-68
2022/03/03 07:43:10;;;;;;;58.47;34.20;;;;;;;37.85;41.62;100995.09;5011832;28;20427;-68
2022/03/03 07:45:37;;;;;;;51.80;31.03;;;;;;;37.79;42.18;100990.84;5011666;28;20539;-68
2022/03/03 07:48:03;;;;;;;45.20;30.30;;;;;;;37.97;42.01;100994.56;5011625;28;20917;-68
2022/03/03 07:50:29;;;;;;;48.73;28.50;;;;;;;38.02;42.25;100994.47;5011228;28;20440;-68
2022/03/03 07:52:56;;;;;;;55.23;29.33;;;;;;;38.03;42.43;100996.06;5028017;28;20557;-68
2022/03/03 07:55:23;;;;;;;32.67;19.10;;;;;;;37.61;43.69;100997.97;5011663;28;20924;-68
2022/03/03 07:57:59;;;;;;;37.53;15.03;;;;;;;37.36;44.23;100990.34;5027491;28;21011;-69
2022/03/03 08:00:29;;;;;;;20.30;12.83;;;;;;;37.60;42.79;100998.28;5011210;28;20543;-68
2022/03/03 08:02:59;;;;;;;35.97;16.17;;;;;;;37.85;42.28;101005.13;5027841;28;20420;-69
2022/03/03 08:05:28;;;;;;;33.33;11.83;;;;;;;37.73;43.16;101011.00;5011207;28;20988;-68
2022/03/03 08:07:56;;;;;;;30.73;13.57;;;;;;;37.78;43.54;101010.91;5011147;28;20839;-68
2022/03/03 08:10:26;;;;;;;20.50;12.60;;;;;;;37.96;42.75;101014.63;5012324;28;20416;-70
2022/03/03 08:12:58;;;;;;;24.23;13.40;;;;;;;38.08;41.72;101019.53;5011172;28;20441;-69
2022/03/03 08:15:25;;;;;;;35.50;13.10;;;;;;;38.23;41.84;101019.19;5026728;28;20490;-69
2022/03/03 08:17:53;;;;;;;23.33;12.03;;;;;;;38.08;42.88;101016.84;5030602;28;20501;-69
2022/03/03 08:20:20;;;;;;;32.00;11.47;;;;;;;38.23;43.12;101021.09;5047429;28;20419;-69
2022/03/03 08:22:47;;;;;;;23.27;15.27;;;;;;;38.31;42.47;101020.44;5047572;28;20887;-70
2022/03/03 08:25:14;;;;;;;28.97;16.27;;;;;;;38.43;42.24;101031.53;5033763;28;20455;-70
2022/03/03 08:27:43;;;;;;;33.80;14.67;;;;;;;37.64;43.80;101018.25;5010245;28;20450;-70
2022/03/03 08:30:11;;;;;;;31.30;14.00;;;;;;;37.57;44.47;101034.88;5013623;28;20415;-70
2022/03/03 08:32:40;;;;;;;24.93;11.43;;;;;;;37.82;43.00;101030.09;5031737;28;20415;-70
2022/03/03 08:35:16;;;;;;;35.47;17.97;;;;;;;38.10;42.50;101036.28;5030003;28;20427;-70
2022/03/03 08:37:52;;;;;;;24.43;14.00;;;;;;;38.11;42.71;101046.81;5045673;28;20403;-71
2022/03/03 08:40:18;;;;;;;45.10;13.33;;;;;;;37.89;42.67;101042.13;5030460;28;20460;-70
2022/03/03 08:42:56;;;;;;;34.17;14.23;;;;;;;38.38;41.51;101039.78;5031538;28;20482;-72
2022/03/03 08:45:29;;;;;;;22.40;10.93;;;;;;;38.44;41.36;101044.78;5030924;28;20483;-70
2022/03/03 08:48:08;;;;;;;29.03;11.83;;;;;;;38.37;41.16;101046.31;5031430;28;20416;-69
2022/03/03 08:50:36;;;;;;;39.43;13.70;;;;;;;38.36;40.93;101053.63;5013010;28;20481;-69
2022/03/03 08:53:05;;;;;;;30.83;12.87;;;;;;;38.35;40.76;101064.78;5014155;28;20458;-70
2022/03/03 08:55:31;;;;;;;22.00;11.60;;;;;;;38.44;40.76;101076.50;5013711;28;20415;-72
2022/03/03 08:57:58;;;;;;;19.33;11.53;;;;;;;38.29;40.99;101063.28;5009837;28;20448;-70
2022/03/03 09:00:25;;;;;;;28.03;14.03;;;;;;;38.48;40.90;101073.97;4997329;28;20419;-70
2022/03/03 09:02:52;;;;;;;44.30;16.27;;;;;;;38.44;41.32;101073.81;5046289;28;20447;-69
2022/03/03 09:07:54;;;;;;;24.23;12.30;;;;;;;38.54;41.91;101076.25;5290802;23;20485;-69
2022/03/03 09:10:21;;;;;;;18.13;13.60;;;;;;;38.74;41.42;101071.53;4965523;28;20515;-70
2022/03/03 09:12:47;;;;;;;23.10;12.90;;;;;;;38.70;41.67;101079.44;4992353;28;20529;-70
2022/03/03 09:15:14;;;;;;;30.23;14.17;;;;;;;38.81;41.67;101072.72;4991942;28;20444;-70
2022/03/03 09:17:41;;;;;;;28.77;15.43;;;;;;;39.00;41.54;101077.97;4992059;28;20401;-70
2022/03/03 09:20:11;;;;;;;32.47;14.03;;;;;;;38.93;42.11;101072.16;4992354;28;20890;-71
2022/03/03 09:22:38;;;;;;;23.83;13.80;;;;;;;38.69;42.70;101067.81;4974581;28;20515;-72
2022/03/03 09:25:04;;;;;;;35.30;15.83;;;;;;;38.57;43.57;101072.97;4974428;28;21011;-71
2022/03/03 09:27:30;;;;;;;37.13;14.07;;;;;;;38.72;43.04;101071.81;4971897;28;20443;-69
2022/03/03 09:29:56;;;;;;;36.40;18.10;;;;;;;38.95;43.17;101076.16;4992118;28;20431;-70
2022/03/03 09:32:22;;;;;;;39.43;16.60;;;;;;;39.16;42.82;101075.69;4991910;28;20449;-69
2022/03/03 09:34:49;;;;;;;34.60;15.43;;;;;;;39.20;42.88;101072.03;4991899;28;20493;-69
2022/03/03 09:37:16;;;;;;;36.20;15.73;;;;;;;38.95;43.75;101064.50;4974372;28;20922;-69
2022/03/03 09:39:44;;;;;;;31.20;15.47;;;;;;;38.92;44.00;101062.44;4974678;28;20421;-69
2022/03/03 09:42:10;;;;;;;37.17;16.40;;;;;;;38.97;44.29;101057.66;4992130;28;20890;-70
2022/03/03 09:44:36;;;;;;;31.37;15.63;;;;;;;38.85;44.39;101051.19;4974417;28;20465;-69
2022/03/03 09:47:03;;;;;;;35.07;15.27;;;;;;;38.81;44.12;101058.34;4973177;28;20429;-71
2022/03/03 09:49:29;;;;;;;41.00;18.90;;;;;;;38.72;43.47;101060.19;4990076;28;20449;-71
2022/03/03 09:51:56;;;;;;;34.00;15.60;;;;;;;38.77;43.89;101057.34;4975072;28;20429;-71
2022/03/03 09:54:22;;;;;;;38.83;18.43;;;;;;;38.66;43.75;101048.63;4976284;28;20421;-69
2022/03/03 09:56:48;;;;;;;39.40;17.10;;;;;;;38.92;43.34;101055.09;4975854;28;20457;-70
2022/03/03 09:59:15;;;;;;;30.50;16.00;;;;;;;38.87;43.69;101052.50;4976078;28;20979;-70
2022/03/03 10:01:41;;;;;;;40.47;15.67;;;;;;;38.67;44.18;101052.94;4976478;28;20433;-69
2022/03/03 10:04:25;;;;;;;40.40;17.00;;;;;;;38.93;43.38;101045.03;4977934;28;20468;-69
2022/03/03 10:06:51;;;;;;;37.47;17.60;;;;;;;38.74;43.65;101047.94;4977311;28;20844;-70
2022/03/03 10:09:18;;;;;;;39.57;16.20;;;;;;;38.93;43.17;101059.41;4977452;28;20507;-71
2022/03/03 10:12:00;;;;;;;38.53;17.43;;;;;;;38.74;43.76;101055.28;4977895;28;20938;-70
2022/03/03 10:14:38;;;;;;;37.67;19.33;;;;;;;39.00;43.12;101042.69;4977565;28;20477;-69
2022/03/03 10:17:05;;;;;;;35.27;16.30;;;;;;;38.82;43.48;101043.69;4994861;28;20472;-70
2022/03/03 10:19:33;;;;;;;34.77;17.43;;;;;;;38.66;43.71;101049.41;4994978;28;20437;-69
2022/03/03 10:21:59;;;;;;;39.80;20.10;;;;;;;38.92;43.51;101046.97;4977693;28;20430;-70
2022/03/03 10:24:29;;;;;;;28.60;15.13;;;;;;;38.82;43.75;101049.91;4977442;28;20501;-73
2022/03/03 10:26:59;;;;;;;40.97;19.97;;;;;;;38.65;44.38;101042.41;4977049;28;20629;-69
2022/03/03 10:29:26;;;;;;;24.73;16.97;;;;;;;38.93;43.20;101035.00;4979266;28;20895;-71
2022/03/03 10:31:55;;;;;;;38.70;16.17;;;;;;;39.02;43.23;101039.66;4977315;28;20445;-69
2022/03/03 10:34:25;;;;;;;33.77;15.27;;;;;;;39.17;42.61;101031.97;4979906;28;20925;-69
2022/03/03 10:37:10;;;;;;;28.70;14.77;;;;;;;39.09;42.72;101021.03;4976881;28;20512;-69
2022/03/03 10:39:48;;;;;;;38.37;16.27;;;;;;;39.13;42.99;101028.25;4977236;28;20456;-73
2022/03/03 10:42:17;;;;;;;40.90;18.30;;;;;;;39.15;42.40;101019.78;4977230;28;20491;-71
2022/03/03 10:44:43;;;;;;;31.63;17.77;;;;;;;39.13;42.86;101011.97;4977216;28;20985;-69
2022/03/03 10:47:12;;;;;;;26.17;16.13;;;;;;;38.87;42.98;101006.41;4976552;28;20436;-71
2022/03/03 10:49:41;;;;;;;34.30;15.53;;;;;;;39.16;42.88;101016.00;4977118;28;20476;-68
2022/03/03 10:52:15;;;;;;;34.27;15.47;;;;;;;39.20;42.67;101014.25;4976922;28;20496;-69
2022/03/03 10:54:55;;;;;;;44.67;17.27;;;;;;;39.03;42.87;101014.94;4977118;28;20925;-69
2022/03/03 10:57:41;;;;;;;35.03;20.40;;;;;;;39.13;42.88;101005.75;4993934;28;20420;-70
2022/03/03 11:00:12;;;;;;;46.40;19.67;;;;;;;39.16;42.86;101002.44;4994523;28;20489;-72
2022/03/03 11:02:41;;;;;;;33.37;16.90;;;;;;;39.26;42.82;100998.66;4975755;28;20421;-69
2022/03/03 11:05:11;;;;;;;29.03;16.37;;;;;;;39.18;42.77;100992.88;4976711;28;20737;-71
2022/03/03 11:07:40;;;;;;;33.20;17.50;;;;;;;39.45;42.31;100985.63;4976191;28;21011;-69
2022/03/03 11:10:07;;;;;;;36.53;18.23;;;;;;;39.29;42.45;100979.84;4976833;28;20426;-70
2022/03/03 11:12:34;;;;;;;24.37;14.60;;;;;;;39.39;42.31;100974.13;4996561;28;20467;-69
2022/03/03 11:15:00;;;;;;;35.23;16.27;;;;;;;39.37;41.77;100983.69;4985593;28;20464;-68
2022/03/03 11:17:26;;;;;;;33.73;15.43;;;;;;;39.49;41.90;100964.91;4980053;28;20836;-69